Terminal Aerodrome Forecast
Issued by NWS

Home | Current Version | Previous Version | Text Only | Print | Product List | Glossary On
Versions: 1 2 3 4 5 6 7 8 9 10 11 12 13 14
000
FTUS42 KTBW 261737
TAFRSW
TAF
KRSW 261737Z 2618/2718 12008KT P6SM SCT045 BKN060
     FM262100 15007KT P6SM VCSH BKN050
     FM270200 08005KT P6SM VCSH BKN050
     FM270400 09004KT P6SM SCT045
     FM271400 10006KT P6SM FEW035 SCT250=

USA.gov is the U.S. government's official web portal to all federal, state and local government web resources and services.